Main page
METAR-TAF:

METAR-TAF

Airports :

Oil platform

Sleipner, Norway

latitude: 58-22-00N, longitude: 001-54-25E, elevation: 50 m

Current weather observation

The report was made 23 minutes ago, at 05:20 UTC
Wind 13 kt from the Southeast
Temperature 16°C
Humidity 88%
Pressure 1012 hPa
Visibility: 8000 m
Broken clouds at a height of 1000 ft

METAR: ENSL 170520Z 14013KT 8000 BKN010 16/14 Q1012 W14/S3

Time: 07:43 (05:43 UTC)

Forecast

The report was made 18 hours and 43 minutes ago, at 11:00 UTC
Forecast valid from 16 at 12 UTC to 16 at 17 UTC
Wind 22 kt from the South
Visibility 10 km or more
no clouds below 1500 m and no cumulonimbus

TAF: ENSL 161100Z 1612/1617 18022KT CAVOK

Weather observations and forecasts of more than 4000 airports (METAR and TAF reports).

The available stations are represented by yellow and red dots on the map.

Hover mouse over dot to see the name of the station.

Then click to see weather observations and forecasts.

To change the map : click on the green buttons with a black cross to zoom in, on the green button with a dash to zoom out, or on the green arrows for adjacent maps.


METAR-TAF: